createdAt,value
2022-12-16T00:02:04.886Z,20.83
2022-12-16T00:04:31.334Z,21.07
2022-12-16T00:06:57.735Z,25.33
2022-12-16T00:09:23.890Z,18.73
2022-12-16T00:11:50.137Z,22.00
2022-12-16T00:14:16.356Z,22.03
2022-12-16T00:16:42.664Z,18.97
2022-12-16T00:19:08.907Z,20.60
2022-12-16T00:21:35.793Z,21.40
2022-12-16T00:24:02.116Z,21.23
2022-12-16T00:26:30.475Z,20.57
2022-12-16T00:28:57.487Z,20.13
2022-12-16T00:31:24.314Z,21.73
2022-12-16T00:33:52.173Z,18.53
2022-12-16T00:36:18.430Z,18.80
2022-12-16T00:38:44.596Z,20.03
2022-12-16T00:41:10.853Z,18.23
2022-12-16T00:43:37.130Z,18.83
2022-12-16T00:46:03.450Z,19.47
2022-12-16T00:48:29.743Z,18.10
2022-12-16T00:50:56.037Z,17.03
2022-12-16T00:53:24.574Z,17.27
2022-12-16T00:56:13.889Z,17.67
2022-12-16T00:58:40.854Z,16.60
2022-12-16T01:01:08.536Z,15.73
2022-12-16T01:03:36.718Z,16.57
2022-12-16T01:06:16.607Z,15.70
2022-12-16T01:08:49.902Z,14.93
2022-12-16T01:11:19.301Z,16.00
2022-12-16T01:13:49.429Z,16.00
2022-12-16T01:16:15.693Z,15.27
2022-12-16T01:18:42.101Z,16.97
2022-12-16T01:21:14.036Z,16.47
2022-12-16T01:23:40.735Z,16.70
2022-12-16T01:26:07.155Z,15.93
2022-12-16T01:28:34.421Z,16.07
2022-12-16T01:31:01.324Z,16.10
2022-12-16T01:33:31.145Z,17.30
2022-12-16T01:36:03.981Z,16.07
2022-12-16T01:38:30.781Z,15.37
2022-12-16T01:40:57.471Z,15.33
2022-12-16T01:43:36.263Z,17.13
2022-12-16T01:46:11.533Z,17.33
2022-12-16T01:48:52.373Z,16.37
2022-12-16T01:51:47.365Z,16.00
2022-12-16T01:54:27.538Z,17.57
2022-12-16T01:57:03.474Z,16.87
2022-12-16T01:59:33.110Z,16.97
2022-12-16T02:02:00.144Z,16.23
2022-12-16T02:04:26.523Z,16.90
2022-12-16T02:06:53.884Z,18.27
2022-12-16T02:09:21.126Z,18.60
2022-12-16T02:12:32.258Z,17.90
2022-12-16T02:15:21.768Z,18.43
2022-12-16T02:18:04.479Z,17.60
2022-12-16T02:21:11.560Z,16.47
2022-12-16T02:24:01.680Z,19.43
2022-12-16T02:27:17.473Z,17.40
2022-12-16T02:29:52.389Z,18.63
2022-12-16T02:32:36.425Z,18.83
2022-12-16T02:35:32.646Z,20.23
2022-12-16T02:38:16.182Z,18.07
2022-12-16T02:41:04.785Z,17.83
2022-12-16T02:44:01.758Z,18.53
2022-12-16T02:46:33.300Z,19.03
2022-12-16T02:49:11.715Z,18.50
2022-12-16T02:51:38.734Z,18.10
2022-12-16T02:54:08.073Z,22.77
2022-12-16T02:57:14.274Z,20.83
2022-12-16T03:00:03.782Z,22.33
2022-12-16T03:02:44.553Z,19.60
2022-12-16T03:05:30.530Z,20.03
2022-12-16T03:08:03.660Z,18.70
2022-12-16T03:10:40.563Z,19.17
2022-12-16T03:13:11.314Z,18.87
2022-12-16T03:15:40.756Z,21.57
2022-12-16T03:18:11.534Z,18.67
2022-12-16T03:20:57.206Z,19.43
2022-12-16T03:24:00.356Z,18.00
2022-12-16T03:26:44.261Z,17.57
2022-12-16T03:29:35.287Z,16.80
2022-12-16T03:32:14.956Z,17.93
2022-12-16T03:35:01.229Z,17.00
2022-12-16T03:37:33.177Z,17.43
2022-12-16T03:40:05.111Z,17.27
2022-12-16T03:42:32.779Z,17.37
2022-12-16T03:44:59.220Z,15.93
2022-12-16T03:47:28.489Z,16.97
2022-12-16T03:49:54.892Z,16.63
2022-12-16T03:52:21.327Z,16.00
2022-12-16T03:54:47.537Z,16.00
2022-12-16T03:57:15.612Z,15.57
2022-12-16T03:59:42.662Z,16.10
2022-12-16T04:02:09.173Z,15.90
2022-12-16T04:04:35.529Z,16.73
2022-12-16T04:07:19.787Z,17.17
2022-12-16T04:09:47.495Z,15.27
2022-12-16T04:12:32.679Z,15.83
2022-12-16T04:15:17.673Z,16.90
2022-12-16T04:18:02.581Z,15.47
2022-12-16T04:20:51.652Z,15.73
2022-12-16T04:23:44.059Z,15.80
2022-12-16T04:26:11.093Z,15.97
2022-12-16T04:28:37.453Z,15.27
2022-12-16T04:31:04.159Z,16.07
2022-12-16T04:33:49.121Z,15.60
2022-12-16T04:36:33.823Z,16.23
2022-12-16T04:39:18.412Z,17.40
2022-12-16T04:42:03.032Z,16.37
2022-12-16T04:44:48.068Z,16.37
2022-12-16T04:47:57.079Z,15.77
2022-12-16T04:50:42.563Z,15.37
2022-12-16T04:53:27.165Z,15.97
2022-12-16T04:56:11.752Z,15.53
2022-12-16T04:58:56.283Z,16.17
2022-12-16T05:01:40.902Z,16.27
2022-12-16T05:04:25.540Z,15.87
2022-12-16T05:07:10.262Z,16.30
2022-12-16T05:09:55.462Z,17.03
2022-12-16T05:12:40.035Z,15.80
2022-12-16T05:15:25.573Z,15.20
2022-12-16T05:18:10.145Z,15.97
2022-12-16T05:20:54.767Z,16.57
2022-12-16T05:23:40.287Z,14.97
2022-12-16T05:26:24.819Z,16.43
2022-12-16T05:29:09.338Z,15.97
2022-12-16T05:31:53.805Z,16.17
2022-12-16T05:34:38.346Z,17.57
2022-12-16T05:37:22.759Z,15.70
2022-12-16T05:40:07.383Z,15.93
2022-12-16T05:42:52.057Z,16.37
2022-12-16T05:45:36.625Z,14.93
2022-12-16T05:48:21.679Z,16.73
2022-12-16T05:51:06.234Z,16.07
2022-12-16T05:53:50.758Z,16.73
2022-12-16T05:56:35.424Z,16.80
2022-12-16T05:59:19.974Z,17.27
2022-12-16T06:02:04.509Z,18.07
2022-12-16T06:04:49.634Z,17.40
2022-12-16T06:07:34.315Z,18.13
2022-12-16T06:10:18.958Z,17.90
2022-12-16T06:13:06.629Z,17.20
2022-12-16T06:15:51.226Z,17.07
2022-12-16T06:18:36.493Z,16.33
2022-12-16T06:21:21.308Z,17.17
2022-12-16T06:24:06.176Z,17.83
2022-12-16T06:26:50.728Z,18.17
2022-12-16T06:29:35.354Z,17.20
2022-12-16T06:32:19.881Z,19.37
2022-12-16T06:35:04.501Z,18.53
2022-12-16T06:37:49.148Z,19.67
2022-12-16T06:40:34.211Z,18.93
2022-12-16T06:43:18.908Z,18.87
2022-12-16T06:46:03.508Z,19.27
2022-12-16T06:48:48.455Z,22.10
2022-12-16T06:51:33.197Z,21.33
2022-12-16T06:54:17.705Z,21.20
2022-12-16T06:57:02.381Z,20.73
2022-12-16T06:59:46.971Z,20.97
2022-12-16T07:02:31.498Z,20.10
2022-12-16T07:05:16.114Z,20.73
2022-12-16T07:08:09.056Z,18.90
2022-12-16T07:10:56.823Z,18.00
2022-12-16T07:13:44.121Z,18.73
2022-12-16T07:16:28.894Z,17.07
2022-12-16T07:19:13.383Z,17.63
2022-12-16T07:21:58.119Z,18.93
2022-12-16T07:24:43.044Z,20.80
2022-12-16T07:27:27.521Z,19.73
2022-12-16T07:30:12.489Z,19.37
2022-12-16T07:32:57.121Z,19.10
2022-12-16T07:35:41.699Z,19.90
2022-12-16T07:38:26.292Z,20.07
2022-12-16T07:41:10.812Z,19.47
2022-12-16T07:43:55.376Z,19.47
2022-12-16T07:46:40.021Z,19.43
2022-12-16T07:49:24.577Z,18.93
2022-12-16T07:52:09.342Z,18.07
2022-12-16T07:54:53.914Z,22.47
2022-12-16T07:57:39.992Z,24.87
2022-12-16T08:00:25.696Z,23.83
2022-12-16T08:03:13.221Z,22.43
2022-12-16T08:05:57.866Z,21.60
2022-12-16T08:08:42.912Z,21.57
2022-12-16T08:11:28.088Z,20.27
2022-12-16T08:14:12.826Z,19.63
2022-12-16T08:16:57.485Z,17.77
2022-12-16T08:19:42.204Z,18.50
2022-12-16T08:22:27.496Z,18.60
2022-12-16T08:25:12.366Z,18.43
2022-12-16T08:27:57.058Z,19.30
2022-12-16T08:30:41.523Z,17.87
2022-12-16T08:33:25.973Z,19.03
2022-12-16T08:36:10.659Z,19.07
2022-12-16T08:38:56.042Z,19.07
2022-12-16T08:41:40.986Z,19.97
2022-12-16T08:44:25.624Z,19.93
2022-12-16T08:47:10.002Z,19.77
2022-12-16T08:49:57.836Z,21.27
2022-12-16T08:52:46.692Z,20.13
2022-12-16T08:55:31.945Z,21.07
2022-12-16T08:58:17.040Z,21.93
2022-12-16T09:01:06.977Z,21.03
2022-12-16T09:03:54.106Z,21.03
2022-12-16T09:06:40.957Z,21.00
2022-12-16T09:09:27.835Z,19.60
2022-12-16T09:12:13.040Z,18.20
2022-12-16T09:14:57.551Z,18.57
2022-12-16T09:17:42.497Z,17.70
2022-12-16T09:20:28.026Z,16.83
2022-12-16T09:23:12.545Z,17.27
2022-12-16T09:25:57.004Z,16.30
2022-12-16T09:28:41.560Z,16.50
2022-12-16T09:31:26.125Z,16.67
2022-12-16T09:34:11.011Z,16.67
2022-12-16T09:36:55.421Z,16.57
2022-12-16T09:39:40.322Z,17.33
2022-12-16T09:43:14.277Z,16.47
2022-12-16T09:46:23.857Z,16.37
2022-12-16T09:49:40.108Z,17.20
2022-12-16T09:52:35.031Z,15.20
2022-12-16T09:55:23.567Z,16.20
2022-12-16T09:58:08.702Z,15.73
2022-12-16T10:00:54.828Z,15.20
2022-12-16T10:03:56.443Z,16.47
2022-12-16T10:07:06.004Z,16.20
2022-12-16T10:10:37.928Z,14.60
2022-12-16T10:14:11.161Z,16.07
2022-12-16T10:17:22.890Z,15.23
2022-12-16T10:20:23.507Z,16.73
2022-12-16T10:23:23.277Z,17.73
2022-12-16T10:26:45.581Z,15.17
2022-12-16T10:29:44.919Z,15.57
2022-12-16T10:32:40.679Z,14.73
2022-12-16T10:35:48.731Z,15.27
2022-12-16T10:38:59.891Z,16.23
2022-12-16T10:41:57.392Z,15.63
2022-12-16T10:45:08.315Z,16.50
2022-12-16T10:47:53.366Z,15.97
2022-12-16T10:50:38.237Z,15.73
2022-12-16T10:53:39.687Z,15.63
2022-12-16T10:57:15.744Z,14.60
2022-12-16T11:00:00.689Z,14.70
2022-12-16T11:02:47.616Z,14.03
2022-12-16T11:05:53.180Z,15.40
2022-12-16T11:08:50.023Z,13.93
2022-12-16T11:12:05.067Z,13.70
2022-12-16T11:15:12.464Z,13.30
2022-12-16T11:17:56.029Z,14.10
2022-12-16T11:20:44.284Z,12.67
2022-12-16T11:23:43.198Z,15.23
2022-12-16T11:26:37.336Z,13.23
2022-12-16T11:29:29.399Z,14.43
2022-12-16T11:32:35.375Z,13.87
2022-12-16T11:35:23.295Z,14.07
2022-12-16T11:38:11.528Z,14.93
2022-12-16T11:40:57.338Z,14.07
2022-12-16T11:43:44.717Z,16.40
2022-12-16T11:46:37.989Z,16.30
2022-12-16T11:49:35.016Z,22.30
2022-12-16T11:52:38.406Z,19.40
2022-12-16T11:59:16.875Z,18.03
2022-12-16T12:02:16.674Z,18.57
2022-12-16T12:05:02.151Z,15.03
2022-12-16T12:08:48.339Z,14.10
2022-12-16T12:11:52.363Z,13.93
2022-12-16T12:15:23.792Z,13.23
2022-12-16T12:18:39.650Z,14.07
2022-12-16T12:21:43.985Z,12.47
2022-12-16T12:25:05.587Z,12.10
2022-12-16T12:28:08.946Z,12.70
2022-12-16T12:31:13.642Z,11.73
2022-12-16T12:42:09.807Z,8.87
2022-12-16T12:45:55.631Z,9.63
2022-12-16T12:48:55.995Z,9.83
2022-12-16T12:52:30.224Z,9.70
2022-12-16T12:55:37.918Z,9.33
2022-12-16T12:58:24.995Z,10.27
2022-12-16T13:01:15.256Z,9.77
2022-12-16T13:04:18.591Z,10.03
2022-12-16T13:07:04.951Z,9.93
2022-12-16T13:09:53.630Z,10.13
2022-12-16T13:12:51.646Z,10.27
2022-12-16T13:15:57.084Z,9.53
2022-12-16T13:18:50.436Z,10.67
2022-12-16T13:21:54.015Z,10.70
2022-12-16T13:24:40.961Z,12.67
2022-12-16T13:27:33.062Z,12.83
2022-12-16T13:30:38.420Z,10.50
2022-12-16T13:33:43.360Z,11.57
2022-12-16T13:36:31.543Z,13.43
2022-12-16T13:39:42.762Z,14.83
2022-12-16T13:42:59.616Z,16.20
2022-12-16T13:46:01.048Z,11.67
2022-12-16T13:48:58.256Z,10.70
2022-12-16T13:51:55.079Z,11.93
2022-12-16T13:55:35.368Z,11.00
2022-12-16T13:58:30.547Z,9.43
2022-12-16T14:01:27.324Z,10.00
2022-12-16T14:04:18.377Z,9.77
2022-12-16T14:07:03.776Z,9.83
2022-12-16T14:10:00.848Z,9.77
2022-12-16T14:13:18.511Z,14.27
2022-12-16T14:16:30.269Z,10.20
2022-12-16T14:20:01.556Z,10.67
2022-12-16T14:23:55.372Z,8.97
2022-12-16T14:26:36.331Z,9.67
2022-12-16T14:29:42.510Z,9.40
2022-12-16T14:32:56.751Z,9.93
2022-12-16T14:35:46.197Z,9.83
2022-12-16T14:38:49.063Z,10.20
2022-12-16T14:41:41.717Z,10.67
2022-12-16T14:44:40.689Z,10.87
2022-12-16T14:47:36.347Z,10.37
2022-12-16T14:50:22.714Z,10.10
2022-12-16T14:53:07.282Z,9.87
2022-12-16T14:55:53.479Z,9.87
2022-12-16T14:58:41.678Z,8.63
2022-12-16T15:01:40.224Z,8.50
2022-12-16T15:04:37.952Z,8.87
2022-12-16T15:07:31.516Z,8.97
2022-12-16T15:10:18.031Z,9.17
2022-12-16T15:13:05.358Z,8.13
2022-12-16T15:16:07.864Z,10.87
2022-12-16T15:19:02.410Z,10.03
2022-12-16T15:21:50.750Z,9.47
2022-12-16T15:24:41.480Z,10.10
2022-12-16T15:27:52.449Z,9.93
2022-12-16T15:30:59.813Z,9.57
2022-12-16T15:33:52.609Z,10.10
2022-12-16T15:36:45.371Z,9.33
2022-12-16T15:39:51.469Z,10.77
2022-12-16T15:42:50.061Z,9.50
2022-12-16T15:45:35.091Z,10.40
2022-12-16T15:48:39.400Z,9.00
2022-12-16T15:51:46.664Z,9.23
2022-12-16T15:54:42.669Z,8.87
2022-12-16T15:57:52.073Z,8.97
2022-12-16T16:00:39.742Z,9.03
2022-12-16T16:03:35.336Z,10.03
2022-12-16T16:06:20.179Z,10.60
2022-12-16T16:09:10.181Z,10.33
2022-12-16T16:11:54.636Z,10.63
2022-12-16T16:14:39.198Z,9.97
2022-12-16T16:17:39.507Z,10.73
2022-12-16T16:20:31.108Z,9.30
2022-12-16T16:23:16.693Z,9.57
2022-12-16T16:26:04.055Z,9.70
2022-12-16T16:28:49.334Z,10.37
2022-12-16T16:31:33.810Z,10.50
2022-12-16T16:34:18.630Z,11.17
2022-12-16T16:37:10.239Z,9.70
2022-12-16T16:39:56.121Z,11.33
2022-12-16T16:42:41.283Z,9.60
2022-12-16T16:45:26.635Z,9.87
2022-12-16T16:48:32.193Z,10.23
2022-12-16T16:51:35.670Z,10.07
2022-12-16T16:54:20.217Z,10.73
2022-12-16T16:57:04.898Z,9.77
2022-12-16T16:59:49.368Z,10.07
2022-12-16T17:02:42.232Z,10.13
2022-12-16T17:05:29.150Z,9.23
2022-12-16T17:08:14.603Z,10.00
2022-12-16T17:10:59.789Z,10.07
2022-12-16T17:13:45.159Z,10.27
2022-12-16T17:16:31.642Z,10.50
2022-12-16T17:19:18.687Z,11.03
2022-12-16T17:22:03.307Z,11.03
2022-12-16T17:24:51.413Z,11.97
2022-12-16T17:27:42.833Z,10.23
2022-12-16T17:30:42.037Z,11.23
2022-12-16T17:33:32.089Z,11.37
2022-12-16T17:36:17.156Z,10.53
2022-12-16T17:39:02.715Z,10.23
2022-12-16T17:41:50.351Z,10.00
2022-12-16T17:44:35.982Z,9.60
2022-12-16T17:47:21.758Z,10.20
2022-12-16T17:50:06.776Z,10.53
2022-12-16T17:52:51.943Z,11.53
2022-12-16T17:55:36.898Z,10.40
2022-12-16T17:58:21.989Z,10.33
2022-12-16T18:01:07.049Z,9.33
2022-12-16T18:03:52.147Z,10.40
2022-12-16T18:06:38.489Z,10.57
2022-12-16T18:09:23.970Z,11.30
2022-12-16T18:12:08.707Z,9.80
2022-12-16T18:14:53.078Z,10.13
2022-12-16T18:17:37.686Z,10.13
2022-12-16T18:20:23.032Z,10.93
2022-12-16T18:23:11.047Z,11.50
2022-12-16T18:25:56.107Z,11.00
2022-12-16T18:28:40.649Z,12.07
2022-12-16T18:31:38.995Z,11.47
2022-12-16T18:34:23.802Z,11.53
2022-12-16T18:37:08.692Z,11.57
2022-12-16T18:39:53.170Z,12.10
2022-12-16T18:42:37.824Z,10.80
2022-12-16T18:45:22.658Z,10.80
2022-12-16T18:48:07.194Z,11.10
2022-12-16T18:50:51.823Z,11.60
2022-12-16T18:53:36.716Z,10.00
2022-12-16T18:56:26.346Z,11.07
2022-12-16T18:59:13.374Z,11.37
2022-12-16T19:02:01.035Z,11.60
2022-12-16T19:04:45.605Z,10.97
2022-12-16T19:07:33.570Z,11.23
2022-12-16T19:10:19.004Z,11.37
2022-12-16T19:13:03.801Z,10.17
2022-12-16T19:15:48.226Z,11.23
2022-12-16T19:18:32.976Z,11.83
2022-12-16T19:21:17.691Z,11.47
2022-12-16T19:24:02.362Z,11.30
2022-12-16T19:26:47.389Z,13.10
2022-12-16T19:29:32.036Z,15.93
2022-12-16T19:32:16.674Z,15.67
2022-12-16T19:35:01.488Z,15.30
2022-12-16T19:37:46.083Z,14.70
2022-12-16T19:40:30.519Z,14.20
2022-12-16T19:43:15.683Z,13.87
2022-12-16T19:46:00.107Z,14.63
2022-12-16T19:48:44.995Z,14.00
2022-12-16T19:51:29.357Z,14.67
2022-12-16T19:54:13.898Z,13.23
2022-12-16T19:56:58.310Z,12.67
2022-12-16T19:59:42.854Z,12.50
2022-12-16T20:02:29.680Z,13.03
2022-12-16T20:05:14.280Z,13.63
2022-12-16T20:07:58.754Z,12.87
2022-12-16T20:10:43.321Z,11.77
2022-12-16T20:16:34.341Z,12.23
2022-12-16T20:19:19.250Z,14.17
2022-12-16T20:22:06.815Z,12.27
2022-12-16T20:24:52.877Z,13.17
2022-12-16T20:27:41.589Z,13.10
2022-12-16T20:30:27.245Z,13.03
2022-12-16T20:33:12.160Z,12.37
2022-12-16T20:35:56.842Z,12.07
2022-12-16T20:38:41.488Z,12.40
2022-12-16T20:41:27.350Z,12.63
2022-12-16T20:44:11.937Z,12.50
2022-12-16T20:46:57.034Z,12.93
2022-12-16T20:49:42.007Z,13.90
2022-12-16T20:52:26.825Z,15.27
2022-12-16T20:55:11.214Z,14.93
2022-12-16T20:57:56.294Z,14.43
2022-12-16T21:00:41.145Z,13.97
2022-12-16T21:03:26.920Z,14.77
2022-12-16T21:06:12.269Z,13.90
2022-12-16T21:08:57.320Z,13.80
2022-12-16T21:11:42.227Z,13.83
2022-12-16T21:14:27.618Z,14.50
2022-12-16T21:17:12.778Z,13.63
2022-12-16T21:19:57.512Z,14.20
2022-12-16T21:22:42.975Z,13.43
2022-12-16T21:25:27.566Z,14.83
2022-12-16T21:28:16.717Z,14.50
2022-12-16T21:31:03.485Z,14.27
2022-12-16T21:33:50.087Z,14.63
2022-12-16T21:36:35.616Z,15.23
2022-12-16T21:39:21.366Z,15.00
2022-12-16T21:42:06.406Z,15.20
2022-12-16T21:44:59.604Z,15.03
2022-12-16T21:47:44.205Z,15.10
2022-12-16T21:50:29.480Z,16.40
2022-12-16T21:53:13.945Z,16.60
2022-12-16T21:55:58.799Z,15.10
2022-12-16T21:58:43.422Z,14.13
2022-12-16T22:01:27.940Z,15.40
2022-12-16T22:04:12.370Z,15.20
2022-12-16T22:06:57.359Z,13.67
2022-12-16T22:09:41.875Z,15.00
2022-12-16T22:12:27.231Z,17.07
2022-12-16T22:15:11.675Z,15.87
2022-12-16T22:21:02.775Z,15.87
2022-12-16T22:23:48.738Z,16.57
2022-12-16T22:26:33.642Z,14.23
2022-12-16T22:29:18.327Z,14.80
2022-12-16T22:32:10.764Z,14.50
2022-12-16T22:34:55.648Z,13.83
2022-12-16T22:37:40.721Z,14.73
2022-12-16T22:40:29.895Z,14.33
2022-12-16T22:43:14.600Z,15.30
2022-12-16T22:45:59.182Z,15.70
2022-12-16T22:48:45.172Z,15.67
2022-12-16T22:51:31.702Z,16.50
2022-12-16T22:54:16.739Z,17.53
2022-12-16T22:57:01.329Z,16.77
2022-12-16T22:59:45.865Z,17.13
2022-12-16T23:02:30.819Z,17.50
2022-12-16T23:05:17.775Z,18.30
2022-12-16T23:08:04.809Z,18.10
2022-12-16T23:10:52.466Z,18.23
2022-12-16T23:13:43.455Z,18.60
2022-12-16T23:16:28.372Z,19.17
2022-12-16T23:19:13.160Z,22.87
2022-12-16T23:21:57.747Z,28.43
2022-12-16T23:24:50.279Z,23.80
2022-12-16T23:27:35.355Z,23.93
2022-12-16T23:30:19.947Z,28.00
2022-12-16T23:32:30.620Z,15.83
2022-12-16T23:33:05.008Z,22.60
2022-12-16T23:35:49.509Z,24.47
2022-12-16T23:38:34.479Z,17.13
2022-12-16T23:41:19.435Z,16.33
2022-12-16T23:44:03.961Z,18.40
2022-12-16T23:46:49.092Z,16.17
2022-12-16T23:49:33.665Z,16.83
2022-12-16T23:52:18.205Z,16.23
2022-12-16T23:55:03.320Z,16.43
2022-12-16T23:57:47.790Z,18.03
